createdAt,value
2023-03-02T00:00:41.869Z,21.6
2023-03-02T00:01:50.390Z,22.4
2023-03-02T00:02:58.765Z,22.4
2023-03-02T00:04:07.126Z,22.4
2023-03-02T00:05:15.567Z,22.5
2023-03-02T00:06:23.897Z,22.5
2023-03-02T00:07:32.259Z,22.5
2023-03-02T00:08:40.739Z,21.6
2023-03-02T00:09:49.073Z,21.6
2023-03-02T00:10:57.383Z,21.6
2023-03-02T00:12:05.917Z,21.4
2023-03-02T00:13:14.224Z,21.4
2023-03-02T00:14:22.550Z,21.4
2023-03-02T00:15:31.112Z,21.4
2023-03-02T00:16:39.393Z,21.4
2023-03-02T00:17:47.711Z,21.4
2023-03-02T00:18:56.244Z,21.4
2023-03-02T00:20:04.589Z,21.4
2023-03-02T00:21:12.883Z,21.4
2023-03-02T00:22:21.398Z,21.799999
2023-03-02T00:23:29.745Z,21.799999
2023-03-02T00:24:38.049Z,21.799999
2023-03-02T00:25:46.567Z,21.9
2023-03-02T00:26:54.890Z,21.9
2023-03-02T00:28:03.214Z,21.9
2023-03-02T00:29:11.740Z,20.9
2023-03-02T00:30:20.073Z,20.9
2023-03-02T00:31:28.455Z,20.9
2023-03-02T00:32:36.985Z,21.6
2023-03-02T00:33:45.227Z,21.6
2023-03-02T00:34:53.534Z,21.6
2023-03-02T00:36:02.109Z,21.6
2023-03-02T00:37:10.370Z,21.6
2023-03-02T00:38:18.689Z,21.6
2023-03-02T00:39:27.265Z,20.6
2023-03-02T00:40:35.566Z,20.6
2023-03-02T00:41:43.880Z,20.6
2023-03-02T00:42:52.405Z,21.299999
2023-03-02T00:44:00.730Z,21.299999
2023-03-02T00:45:09.058Z,21.299999
2023-03-02T00:46:17.713Z,20.799999
2023-03-02T00:47:25.875Z,20.799999
2023-03-02T00:48:34.201Z,20.799999
2023-03-02T00:49:42.730Z,19.200001
2023-03-02T00:50:51.039Z,19.200001
2023-03-02T00:51:59.360Z,19.200001
2023-03-02T00:53:07.898Z,20.6
2023-03-02T00:54:16.201Z,20.6
2023-03-02T00:55:24.557Z,20.6
2023-03-02T00:56:33.360Z,20.5
2023-03-02T00:57:41.370Z,20.5
2023-03-02T00:58:49.703Z,20.5
2023-03-02T00:59:58.230Z,20.799999
2023-03-02T01:01:06.542Z,20.799999
2023-03-02T01:02:14.890Z,20.799999
2023-03-02T01:03:23.395Z,20.5
2023-03-02T01:04:31.709Z,20.5
2023-03-02T01:05:40.026Z,20.5
2023-03-02T01:06:48.565Z,19.200001
2023-03-02T01:07:56.900Z,19.200001
2023-03-02T01:09:05.227Z,19.200001
2023-03-02T01:10:13.776Z,19.9
2023-03-02T01:11:22.169Z,19.9
2023-03-02T01:12:30.435Z,19.9
2023-03-02T01:13:38.953Z,20.1
2023-03-02T01:14:47.304Z,20.1
2023-03-02T01:15:55.645Z,20.1
2023-03-02T01:17:04.135Z,20.9
2023-03-02T01:18:13.140Z,20.9
2023-03-02T01:19:20.786Z,20.9
2023-03-02T01:20:29.313Z,20.700001
2023-03-02T01:21:37.634Z,20.700001
2023-03-02T01:22:45.951Z,20.700001
2023-03-02T01:23:54.484Z,21.5
2023-03-02T01:25:02.816Z,21.5
2023-03-02T01:26:11.157Z,21.5
2023-03-02T01:27:19.687Z,21.5
2023-03-02T01:28:27.972Z,21.5
2023-03-02T01:29:36.303Z,21.5
2023-03-02T01:30:44.825Z,22
2023-03-02T01:31:53.300Z,22
2023-03-02T01:33:01.457Z,22
2023-03-02T01:34:09.992Z,21.9
2023-03-02T01:35:18.303Z,21.9
2023-03-02T01:36:26.614Z,21.9
2023-03-02T01:37:35.158Z,21.4
2023-03-02T01:38:43.552Z,21.4
2023-03-02T01:39:51.796Z,21.4
2023-03-02T01:41:00.328Z,22.1
2023-03-02T01:42:08.651Z,22.1
2023-03-02T01:43:17.010Z,22.1
2023-03-02T01:44:25.512Z,22.1
2023-03-02T01:45:33.900Z,22.1
2023-03-02T01:46:42.153Z,22.1
2023-03-02T01:47:50.698Z,22.4
2023-03-02T01:48:59.029Z,22.4
2023-03-02T01:50:07.365Z,22.4
2023-03-02T01:51:15.975Z,22.6
2023-03-02T01:52:24.209Z,22.6
2023-03-02T01:53:32.504Z,22.6
2023-03-02T01:54:41.037Z,23.1
2023-03-02T01:55:49.362Z,23.1
2023-03-02T01:56:57.687Z,23.1
2023-03-02T01:58:06.216Z,22.1
2023-03-02T01:59:14.543Z,22.1
2023-03-02T02:00:22.852Z,22.1
2023-03-02T02:01:31.453Z,21.700001
2023-03-02T02:02:39.699Z,21.700001
2023-03-02T02:03:48.039Z,21.700001
2023-03-02T02:04:56.531Z,21.5
2023-03-02T02:06:04.859Z,21.5
2023-03-02T02:07:13.195Z,21.5
2023-03-02T02:08:21.724Z,22.4
2023-03-02T02:09:30.037Z,22.4
2023-03-02T02:10:38.344Z,22.4
2023-03-02T02:11:46.884Z,22.6
2023-03-02T02:12:55.186Z,22.6
2023-03-02T02:14:03.505Z,22.6
2023-03-02T02:15:12.047Z,22.700001
2023-03-02T02:16:20.372Z,22.700001
2023-03-02T02:17:28.670Z,22.700001
2023-03-02T02:18:37.192Z,21.5
2023-03-02T02:19:45.505Z,21.5
2023-03-02T02:20:53.839Z,21.5
2023-03-02T02:22:02.374Z,22.1
2023-03-02T02:23:10.707Z,22.1
2023-03-02T02:24:19.020Z,22.1
2023-03-02T02:25:27.559Z,21.299999
2023-03-02T02:26:35.897Z,21.299999
2023-03-02T02:27:44.216Z,21.299999
2023-03-02T02:28:52.743Z,21.6
2023-03-02T02:30:01.093Z,21.6
2023-03-02T02:31:09.431Z,21.6
2023-03-02T02:32:18.120Z,22.4
2023-03-02T02:33:26.224Z,22.4
2023-03-02T02:34:34.542Z,22.4
2023-03-02T02:35:43.180Z,21.6
2023-03-02T02:36:51.397Z,21.6
2023-03-02T02:37:59.694Z,21.6
2023-03-02T02:39:08.223Z,21.4
2023-03-02T02:40:16.540Z,21.4
2023-03-02T02:41:24.877Z,21.4
2023-03-02T02:42:33.394Z,22.4
2023-03-02T02:43:41.726Z,22.4
2023-03-02T02:44:50.055Z,22.4
2023-03-02T02:45:58.621Z,22.299999
2023-03-02T02:47:06.942Z,22.299999
2023-03-02T02:48:15.237Z,22.299999
2023-03-02T02:49:23.753Z,21.5
2023-03-02T02:50:32.066Z,21.5
2023-03-02T02:51:40.378Z,21.5
2023-03-02T02:52:48.934Z,21.1
2023-03-02T02:53:57.216Z,21.1
2023-03-02T02:55:05.526Z,21.1
2023-03-02T02:56:14.084Z,21
2023-03-02T02:57:22.376Z,21
2023-03-02T02:58:30.685Z,21
2023-03-02T02:59:39.225Z,20.799999
2023-03-02T03:00:48.267Z,20.799999
2023-03-02T03:01:56.518Z,20.799999
2023-03-02T03:03:05.097Z,21.6
2023-03-02T03:04:13.415Z,21.6
2023-03-02T03:05:21.677Z,21.6
2023-03-02T03:06:30.623Z,21.1
2023-03-02T03:07:38.532Z,21.1
2023-03-02T03:08:46.838Z,21.1
2023-03-02T03:09:55.412Z,21.6
2023-03-02T03:11:03.724Z,21.6
2023-03-02T03:12:12.025Z,21.6
2023-03-02T03:13:20.551Z,20.700001
2023-03-02T03:14:28.854Z,20.700001
2023-03-02T03:15:37.164Z,20.700001
2023-03-02T03:16:45.742Z,21.1
2023-03-02T03:17:54.013Z,21.1
2023-03-02T03:19:02.340Z,21.1
2023-03-02T03:20:10.847Z,21.200001
2023-03-02T03:21:19.161Z,21.200001
2023-03-02T03:22:27.478Z,21.200001
2023-03-02T03:23:36.026Z,22.200001
2023-03-02T03:24:44.357Z,22.200001
2023-03-02T03:25:52.685Z,22.200001
2023-03-02T03:27:01.203Z,21.799999
2023-03-02T03:28:09.529Z,21.799999
2023-03-02T03:29:17.832Z,21.799999
2023-03-02T03:30:26.347Z,21.200001
2023-03-02T03:31:34.666Z,21.200001
2023-03-02T03:32:42.990Z,21.200001
2023-03-02T03:33:51.516Z,22.1
2023-03-02T03:34:59.856Z,22.1
2023-03-02T03:36:08.182Z,22.1
2023-03-02T03:37:16.696Z,22.1
2023-03-02T03:38:25.026Z,22.1
2023-03-02T03:39:33.338Z,22.1
2023-03-02T03:40:41.844Z,20.700001
2023-03-02T03:41:50.171Z,20.700001
2023-03-02T03:42:58.478Z,20.700001
2023-03-02T03:44:07.006Z,19.4
2023-03-02T03:45:15.332Z,19.4
2023-03-02T03:46:23.683Z,19.4
2023-03-02T03:47:32.177Z,19.9
2023-03-02T03:48:40.509Z,19.9
2023-03-02T03:49:48.823Z,19.9
2023-03-02T03:50:57.390Z,20.700001
2023-03-02T03:52:05.678Z,20.700001
2023-03-02T03:53:13.982Z,20.700001
2023-03-02T03:54:22.504Z,20.4
2023-03-02T03:55:30.826Z,20.4
2023-03-02T03:56:39.171Z,20.4
2023-03-02T03:57:47.661Z,20.6
2023-03-02T03:58:55.983Z,20.6
2023-03-02T04:00:04.302Z,20.6
2023-03-02T04:01:12.830Z,20.4
2023-03-02T04:02:21.157Z,20.4
2023-03-02T04:03:29.457Z,20.4
2023-03-02T04:04:38.001Z,20.799999
2023-03-02T04:05:46.309Z,20.799999
2023-03-02T04:06:54.689Z,20.799999
2023-03-02T04:08:03.172Z,20.5
2023-03-02T04:09:11.488Z,20.5
2023-03-02T04:10:19.825Z,20.5
2023-03-02T04:11:28.335Z,20.200001
2023-03-02T04:12:36.647Z,20.200001
2023-03-02T04:13:44.966Z,20.200001
2023-03-02T04:14:53.493Z,22.200001
2023-03-02T04:16:01.877Z,22.200001
2023-03-02T04:17:10.120Z,22.200001
2023-03-02T04:18:18.638Z,21.700001
2023-03-02T04:19:26.944Z,21.700001
2023-03-02T04:20:35.270Z,21.700001
2023-03-02T04:21:43.799Z,21.200001
2023-03-02T04:22:52.131Z,21.200001
2023-03-02T04:24:00.421Z,21.200001
2023-03-02T04:25:08.968Z,20.700001
2023-03-02T04:26:17.331Z,20.700001
2023-03-02T04:27:25.615Z,20.700001
2023-03-02T04:28:34.150Z,20.4
2023-03-02T04:29:42.457Z,20.4
2023-03-02T04:30:50.815Z,20.4
2023-03-02T04:31:59.358Z,21.6
2023-03-02T04:33:07.670Z,21.6
2023-03-02T04:34:16.009Z,21.6
2023-03-02T04:35:24.607Z,20.700001
2023-03-02T04:36:33.211Z,20.700001
2023-03-02T04:37:41.283Z,20.700001
2023-03-02T04:38:49.844Z,21.4
2023-03-02T04:39:58.139Z,21.4
2023-03-02T04:41:06.450Z,21.4
2023-03-02T04:42:14.978Z,22.4
2023-03-02T04:43:23.291Z,22.4
2023-03-02T04:44:31.619Z,22.4
2023-03-02T04:45:40.136Z,21.4
2023-03-02T04:46:48.511Z,21.4
2023-03-02T04:47:56.829Z,21.4
2023-03-02T04:49:05.364Z,21.5
2023-03-02T04:50:13.682Z,21.5
2023-03-02T04:51:22.005Z,21.5
2023-03-02T04:52:30.544Z,21
2023-03-02T04:53:38.863Z,21
2023-03-02T04:54:47.255Z,21
2023-03-02T04:55:55.695Z,21.1
2023-03-02T04:57:04.024Z,21.1
2023-03-02T04:58:12.335Z,21.1
2023-03-02T04:59:20.906Z,22.9
2023-03-02T05:00:29.222Z,22.9
2023-03-02T05:01:37.516Z,22.9
2023-03-02T05:02:46.042Z,29.200001
2023-03-02T05:03:54.372Z,29.200001
2023-03-02T05:05:02.686Z,29.200001
2023-03-02T05:06:11.211Z,24
2023-03-02T05:07:19.547Z,24
2023-03-02T05:08:27.847Z,24
2023-03-02T05:09:36.385Z,22.700001
2023-03-02T05:10:44.718Z,22.700001
2023-03-02T05:11:53.021Z,22.700001
2023-03-02T05:13:01.555Z,22.200001
2023-03-02T05:14:09.877Z,22.200001
2023-03-02T05:15:18.182Z,22.200001
2023-03-02T05:16:26.829Z,21.700001
2023-03-02T05:17:35.047Z,21.700001
2023-03-02T05:18:43.368Z,21.700001
2023-03-02T05:19:51.877Z,22.299999
2023-03-02T05:21:00.220Z,22.299999
2023-03-02T05:22:08.569Z,22.299999
2023-03-02T05:23:17.090Z,21.799999
2023-03-02T05:24:25.405Z,21.799999
2023-03-02T05:25:33.717Z,21.799999
2023-03-02T05:26:42.272Z,21.5
2023-03-02T05:27:50.573Z,21.5
2023-03-02T05:28:58.884Z,21.5
2023-03-02T05:30:07.413Z,21.799999
2023-03-02T05:31:15.806Z,21.799999
2023-03-02T05:32:24.083Z,21.799999
2023-03-02T05:33:32.569Z,21.700001
2023-03-02T05:34:40.893Z,21.700001
2023-03-02T05:35:49.251Z,21.700001
2023-03-02T05:36:57.736Z,26.4
2023-03-02T05:38:06.078Z,26.4
2023-03-02T05:39:14.404Z,26.4
2023-03-02T05:40:22.942Z,23.5
2023-03-02T05:41:31.270Z,23.5
2023-03-02T05:42:39.608Z,23.5
2023-03-02T05:43:48.128Z,21.700001
2023-03-02T05:44:56.486Z,21.700001
2023-03-02T05:46:04.755Z,21.700001
2023-03-02T05:47:13.320Z,20.4
2023-03-02T05:48:21.607Z,20.4
2023-03-02T05:49:29.911Z,20.4
2023-03-02T05:50:38.430Z,20
2023-03-02T05:51:46.775Z,20
2023-03-02T05:52:55.109Z,20
2023-03-02T05:54:03.616Z,20.1
2023-03-02T05:55:11.934Z,20.1
2023-03-02T05:56:20.247Z,20.1
2023-03-02T05:57:28.785Z,20.9
2023-03-02T05:58:37.161Z,20.9
2023-03-02T05:59:45.452Z,20.9
2023-03-02T06:00:53.970Z,21.4
2023-03-02T06:02:02.352Z,21.4
2023-03-02T06:03:10.629Z,21.4
2023-03-02T06:04:19.138Z,22
2023-03-02T06:05:27.464Z,22
2023-03-02T06:06:36.161Z,22
2023-03-02T06:07:44.367Z,20
2023-03-02T06:08:52.689Z,20
2023-03-02T06:10:01.011Z,20
2023-03-02T06:11:09.550Z,19.799999
2023-03-02T06:12:17.894Z,19.799999
2023-03-02T06:13:26.228Z,19.799999
2023-03-02T06:14:34.822Z,23.799999
2023-03-02T06:15:43.113Z,23.799999
2023-03-02T06:16:51.535Z,23.799999
2023-03-02T06:18:00.014Z,21.299999
2023-03-02T06:19:08.387Z,21.299999
2023-03-02T06:20:16.710Z,21.299999
2023-03-02T06:21:25.251Z,22.4
2023-03-02T06:22:33.584Z,22.4
2023-03-02T06:23:41.906Z,22.4
2023-03-02T06:24:50.448Z,20.200001
2023-03-02T06:25:58.827Z,20.200001
2023-03-02T06:27:07.121Z,20.200001
2023-03-02T06:28:15.653Z,21.200001
2023-03-02T06:29:24.002Z,21.200001
2023-03-02T06:30:32.362Z,21.200001
2023-03-02T06:31:40.903Z,20.6
2023-03-02T06:32:49.272Z,20.6
2023-03-02T06:33:57.504Z,20.6
2023-03-02T06:35:06.080Z,26
2023-03-02T06:36:14.400Z,26
2023-03-02T06:37:22.699Z,26
2023-03-02T06:38:31.217Z,50.200001
2023-03-02T06:39:39.522Z,50.200001
2023-03-02T06:40:47.852Z,50.200001
2023-03-02T06:41:56.380Z,49.299999
2023-03-02T06:43:04.720Z,49.299999
2023-03-02T06:44:13.035Z,49.299999
2023-03-02T06:45:21.580Z,23.700001
2023-03-02T06:46:29.984Z,23.700001
2023-03-02T06:47:38.228Z,23.700001
2023-03-02T06:48:47.050Z,31.700001
2023-03-02T06:49:55.860Z,31.700001
2023-03-02T06:51:04.150Z,31.700001
2023-03-02T06:52:12.688Z,30.5
2023-03-02T06:53:21.008Z,30.5
2023-03-02T06:54:29.337Z,30.5
2023-03-02T06:55:37.956Z,30.9
2023-03-02T06:56:46.279Z,30.9
2023-03-02T06:57:54.617Z,30.9
2023-03-02T06:59:03.141Z,24
2023-03-02T07:00:11.486Z,24
2023-03-02T07:01:19.819Z,24
2023-03-02T07:02:28.352Z,22.700001
2023-03-02T07:03:36.768Z,22.700001
2023-03-02T07:04:44.977Z,22.700001
2023-03-02T07:05:53.525Z,21.5
2023-03-02T07:07:01.817Z,21.5
2023-03-02T07:08:10.153Z,21.5
2023-03-02T07:09:18.700Z,19.700001
2023-03-02T07:10:27.039Z,19.700001
2023-03-02T07:11:35.448Z,19.700001
2023-03-02T07:12:43.901Z,20.299999
2023-03-02T07:13:52.269Z,20.299999
2023-03-02T07:15:00.579Z,20.299999
2023-03-02T07:16:09.124Z,23.200001
2023-03-02T07:17:17.474Z,23.200001
2023-03-02T07:18:25.803Z,23.200001
2023-03-02T07:19:34.298Z,19.799999
2023-03-02T07:20:42.613Z,19.799999
2023-03-02T07:21:51.384Z,19.799999
2023-03-02T07:22:59.924Z,26
2023-03-02T07:24:08.272Z,26
2023-03-02T07:25:16.577Z,26
2023-03-02T07:26:25.100Z,21.700001
2023-03-02T07:27:33.427Z,21.700001
2023-03-02T07:28:41.753Z,21.700001
2023-03-02T07:29:50.283Z,25.200001
2023-03-02T07:30:58.683Z,25.200001
2023-03-02T07:32:07.056Z,25.200001
2023-03-02T07:33:15.469Z,22.5
2023-03-02T07:34:23.817Z,22.5
2023-03-02T07:35:32.169Z,22.5
2023-03-02T07:36:40.628Z,20.200001
2023-03-02T07:37:48.955Z,20.200001
2023-03-02T07:38:57.285Z,20.200001
2023-03-02T07:40:05.808Z,36
2023-03-02T07:41:14.119Z,36
2023-03-02T07:42:22.451Z,36
2023-03-02T07:43:30.984Z,19.700001
2023-03-02T07:44:39.288Z,19.700001
2023-03-02T07:45:47.612Z,19.700001
2023-03-02T07:46:56.180Z,20.4
2023-03-02T07:48:04.468Z,20.4
2023-03-02T07:49:12.780Z,20.4
2023-03-02T07:50:21.327Z,21.1
2023-03-02T07:51:29.648Z,21.1
2023-03-02T07:52:37.969Z,21.1
2023-03-02T07:53:46.510Z,20.9
2023-03-02T07:54:54.947Z,20.9
2023-03-02T07:56:03.247Z,20.9
2023-03-02T07:57:11.766Z,20.9
2023-03-02T07:58:20.104Z,20.9
2023-03-02T07:59:28.431Z,20.9
2023-03-02T08:00:36.949Z,21.1
2023-03-02T08:01:45.360Z,21.1
2023-03-02T08:02:53.696Z,21.1
2023-03-02T08:04:02.122Z,20.799999
2023-03-02T08:05:10.461Z,20.799999
2023-03-02T08:06:18.794Z,20.799999
2023-03-02T08:07:27.307Z,21.200001
2023-03-02T08:08:35.692Z,21.200001
2023-03-02T08:09:44.003Z,21.200001
2023-03-02T08:10:52.539Z,21.200001
2023-03-02T08:12:00.858Z,21.200001
2023-03-02T08:13:09.211Z,21.200001
2023-03-02T08:14:17.733Z,21.1
2023-03-02T08:15:26.041Z,21.1
2023-03-02T08:16:34.382Z,21.1
2023-03-02T08:17:42.875Z,21.4
2023-03-02T08:18:51.199Z,21.4
2023-03-02T08:19:59.522Z,21.4
2023-03-02T08:21:08.053Z,20.700001
2023-03-02T08:22:16.423Z,20.700001
2023-03-02T08:23:24.758Z,20.700001
2023-03-02T08:24:33.247Z,21.299999
2023-03-02T08:25:41.554Z,21.299999
2023-03-02T08:26:49.889Z,21.299999
2023-03-02T08:27:58.420Z,21.6
2023-03-02T08:29:06.758Z,21.6
2023-03-02T08:30:15.062Z,21.6
2023-03-02T08:31:23.634Z,21.5
2023-03-02T08:32:32.663Z,21.5
2023-03-02T08:33:40.958Z,21.5
2023-03-02T08:34:49.462Z,22
2023-03-02T08:35:57.909Z,22
2023-03-02T08:37:06.079Z,22
2023-03-02T08:38:14.632Z,21.299999
2023-03-02T08:39:22.959Z,21.299999
2023-03-02T08:40:31.841Z,21.299999
2023-03-02T08:41:40.193Z,21.5
2023-03-02T08:42:48.519Z,21.5
2023-03-02T08:43:56.849Z,21.5
2023-03-02T08:45:05.372Z,22.4
2023-03-02T08:46:13.777Z,22.4
2023-03-02T08:47:22.012Z,22.4
2023-03-02T08:48:30.569Z,21.299999
2023-03-02T08:49:38.889Z,21.299999
2023-03-02T08:50:47.195Z,21.299999
2023-03-02T08:51:55.738Z,21.6
2023-03-02T08:53:04.106Z,21.6
2023-03-02T08:54:12.470Z,21.6
2023-03-02T08:55:21.035Z,21.9
2023-03-02T08:56:29.277Z,21.9
2023-03-02T08:57:37.615Z,21.9
2023-03-02T08:58:46.159Z,21
2023-03-02T08:59:54.474Z,21
2023-03-02T09:01:02.895Z,21
2023-03-02T09:02:11.324Z,21.700001
2023-03-02T09:03:19.656Z,21.700001
2023-03-02T09:04:28.020Z,21.700001
2023-03-02T09:05:36.504Z,21.1
2023-03-02T09:06:44.813Z,21.1
2023-03-02T09:07:53.132Z,21.1
2023-03-02T09:09:01.672Z,21.9
2023-03-02T09:10:10.149Z,21.9
2023-03-02T09:11:18.342Z,21.9
2023-03-02T09:12:26.898Z,21.700001
2023-03-02T09:13:35.224Z,21.700001
2023-03-02T09:14:43.557Z,21.700001
2023-03-02T09:15:52.111Z,22.799999
2023-03-02T09:17:00.491Z,22.799999
2023-03-02T09:18:08.729Z,22.799999
2023-03-02T09:19:17.247Z,21.6
2023-03-02T09:20:25.578Z,21.6
2023-03-02T09:21:34.207Z,21.6
2023-03-02T09:22:42.451Z,21.1
2023-03-02T09:23:50.787Z,21.1
2023-03-02T09:24:59.103Z,21.1
2023-03-02T09:26:07.778Z,21.299999
2023-03-02T09:27:16.177Z,21.299999
2023-03-02T09:28:24.378Z,21.299999
2023-03-02T09:29:32.910Z,21.5
2023-03-02T09:30:41.224Z,21.5
2023-03-02T09:31:49.562Z,21.5
2023-03-02T09:32:58.294Z,22.9
2023-03-02T09:34:06.381Z,22.9
2023-03-02T09:35:14.710Z,22.9
2023-03-02T09:36:23.223Z,22.4
2023-03-02T09:37:31.661Z,22.4
2023-03-02T09:38:39.880Z,22.4
2023-03-02T09:39:48.472Z,22.200001
2023-03-02T09:40:56.715Z,22.200001
2023-03-02T09:42:05.056Z,22.200001
2023-03-02T09:43:13.581Z,20.9
2023-03-02T09:44:21.896Z,20.9
2023-03-02T09:45:30.219Z,20.9
2023-03-02T09:46:38.755Z,21.799999
2023-03-02T09:47:47.073Z,21.799999
2023-03-02T09:48:55.436Z,21.799999
2023-03-02T09:50:03.982Z,20.1
2023-03-02T09:51:12.301Z,20.1
2023-03-02T09:52:20.630Z,20.1
2023-03-02T09:53:29.182Z,19.799999
2023-03-02T09:54:37.537Z,19.799999
2023-03-02T09:55:45.852Z,19.799999
2023-03-02T09:56:54.397Z,19.700001
2023-03-02T09:58:02.746Z,19.700001
2023-03-02T09:59:11.043Z,19.700001
2023-03-02T10:00:20.476Z,19.5
2023-03-02T10:01:27.915Z,19.5
2023-03-02T10:02:36.268Z,19.5
2023-03-02T10:03:44.919Z,18.9
2023-03-02T10:04:53.341Z,18.9
2023-03-02T10:06:01.460Z,18.9
2023-03-02T10:07:09.971Z,18.6
2023-03-02T10:08:18.296Z,18.6
2023-03-02T10:09:26.617Z,18.6
2023-03-02T10:10:35.153Z,19.299999
2023-03-02T10:11:43.490Z,19.299999
2023-03-02T10:12:51.837Z,19.299999
2023-03-02T10:14:00.381Z,18.9
2023-03-02T10:15:08.687Z,18.9
2023-03-02T10:16:17.130Z,18.9
2023-03-02T10:17:25.576Z,18.700001
2023-03-02T10:18:33.961Z,18.700001
2023-03-02T10:19:42.235Z,18.700001
2023-03-02T10:20:50.765Z,19.200001
2023-03-02T10:21:59.084Z,19.200001
2023-03-02T10:23:07.472Z,19.200001
2023-03-02T10:24:16.004Z,18.6
2023-03-02T10:25:24.351Z,18.6
2023-03-02T10:26:32.914Z,18.6
2023-03-02T10:27:41.212Z,17.700001
2023-03-02T10:28:49.517Z,17.700001
2023-03-02T10:29:57.850Z,17.700001
2023-03-02T10:31:06.411Z,17.6
2023-03-02T10:32:14.757Z,17.6
2023-03-02T10:33:22.975Z,17.6
2023-03-02T10:34:31.530Z,18.799999
2023-03-02T10:35:39.907Z,18.799999
2023-03-02T10:36:48.215Z,18.799999
2023-03-02T10:37:56.710Z,18.5
2023-03-02T10:39:05.033Z,18.5
2023-03-02T10:40:13.357Z,18.5
2023-03-02T10:41:21.882Z,19
2023-03-02T10:42:30.277Z,19
2023-03-02T10:43:38.518Z,19
2023-03-02T10:44:47.059Z,19.200001
2023-03-02T10:45:55.419Z,19.200001
2023-03-02T10:47:03.696Z,19.200001
2023-03-02T10:48:12.223Z,19.200001
2023-03-02T10:49:20.938Z,19.200001
2023-03-02T10:50:28.873Z,19.200001
2023-03-02T10:51:37.404Z,19.700001
2023-03-02T10:52:54.477Z,19.700001
2023-03-02T10:53:54.058Z,19.700001
2023-03-02T10:55:02.673Z,19.200001
2023-03-02T10:56:10.930Z,19.200001
2023-03-02T10:57:19.241Z,19.200001
2023-03-02T10:58:27.774Z,19.299999
2023-03-02T10:59:36.098Z,19.299999
2023-03-02T11:00:44.421Z,19.299999
2023-03-02T11:01:53.016Z,18.799999
2023-03-02T11:03:01.270Z,18.799999
2023-03-02T11:04:09.635Z,18.799999
2023-03-02T11:05:18.134Z,19.4
2023-03-02T11:06:26.460Z,19.4
2023-03-02T11:07:34.785Z,19.4
2023-03-02T11:08:43.316Z,19.1
2023-03-02T11:09:51.668Z,19.1
2023-03-02T11:11:00.780Z,19.1
2023-03-02T11:12:08.608Z,17.6
2023-03-02T11:13:16.884Z,17.6
2023-03-02T11:14:25.225Z,17.6
2023-03-02T11:15:33.766Z,20
2023-03-02T11:16:42.067Z,20
2023-03-02T11:17:50.418Z,20
2023-03-02T11:18:58.982Z,19.799999
2023-03-02T11:20:07.311Z,19.799999
2023-03-02T11:21:15.639Z,19.799999
2023-03-02T11:22:24.177Z,18.4
2023-03-02T11:23:32.513Z,18.4
2023-03-02T11:24:40.825Z,18.4
2023-03-02T11:25:49.361Z,19.299999
2023-03-02T11:26:57.683Z,19.299999
2023-03-02T11:28:06.032Z,19.299999
2023-03-02T11:29:14.553Z,19.700001
2023-03-02T11:30:22.875Z,19.700001
2023-03-02T11:31:31.349Z,19.700001
2023-03-02T11:32:39.800Z,19.700001
2023-03-02T11:33:48.167Z,19.700001
2023-03-02T11:34:56.382Z,19.700001
2023-03-02T11:36:04.949Z,19.4
2023-03-02T11:37:13.220Z,19.4
2023-03-02T11:38:21.522Z,19.4
2023-03-02T11:39:30.061Z,19.9
2023-03-02T11:40:38.374Z,19.9
2023-03-02T11:41:46.717Z,19.9
2023-03-02T11:42:55.234Z,19.5
2023-03-02T11:44:03.544Z,19.5
2023-03-02T11:45:11.891Z,19.5
2023-03-02T11:46:22.004Z,19.6
2023-03-02T11:47:28.716Z,19.6
2023-03-02T11:48:37.047Z,19.6
2023-03-02T11:49:45.612Z,18.4
2023-03-02T11:50:53.914Z,18.4
2023-03-02T11:52:02.249Z,18.4
2023-03-02T11:53:10.777Z,19.6
2023-03-02T11:54:19.052Z,19.6
2023-03-02T11:55:27.372Z,19.6
2023-03-02T11:56:35.917Z,18.299999
2023-03-02T11:57:44.244Z,18.299999
2023-03-02T11:58:52.547Z,18.299999
2023-03-02T12:00:01.064Z,17.9
2023-03-02T12:01:09.394Z,17.9
2023-03-02T12:02:17.955Z,17.9
2023-03-02T12:03:26.221Z,18.9
2023-03-02T12:04:34.545Z,18.9
2023-03-02T12:05:42.939Z,18.9
2023-03-02T12:06:51.411Z,18.1
2023-03-02T12:07:59.722Z,18.1
2023-03-02T12:09:08.111Z,18.1
2023-03-02T12:10:16.570Z,18.5
2023-03-02T12:11:24.890Z,18.5
2023-03-02T12:12:33.212Z,18.5
2023-03-02T12:13:41.748Z,16.6
2023-03-02T12:14:50.062Z,16.6
2023-03-02T12:15:58.382Z,16.6
2023-03-02T12:17:06.909Z,17.1
2023-03-02T12:18:15.238Z,17.1
2023-03-02T12:19:23.541Z,17.1
2023-03-02T12:20:32.065Z,17
2023-03-02T12:21:40.447Z,17
2023-03-02T12:22:48.712Z,17
2023-03-02T12:23:57.239Z,16.799999
2023-03-02T12:25:05.570Z,16.799999
2023-03-02T12:26:13.904Z,16.799999
2023-03-02T12:27:22.449Z,16.799999
2023-03-02T12:28:30.764Z,16.799999
2023-03-02T12:29:39.058Z,16.799999
2023-03-02T12:30:47.580Z,17.1
2023-03-02T12:31:56.081Z,17.1
2023-03-02T12:33:04.256Z,17.1
2023-03-02T12:34:12.814Z,17.200001
2023-03-02T12:35:21.149Z,17.200001
2023-03-02T12:36:29.403Z,17.200001
2023-03-02T12:37:37.959Z,16.9
2023-03-02T12:38:46.263Z,16.9
2023-03-02T12:39:54.563Z,16.9
2023-03-02T12:41:03.107Z,16.700001
2023-03-02T12:42:11.443Z,16.700001
2023-03-02T12:43:19.852Z,16.700001
2023-03-02T12:44:28.288Z,16.6
2023-03-02T12:45:36.633Z,16.6
2023-03-02T12:46:44.914Z,16.6
2023-03-02T12:47:53.592Z,18.1
2023-03-02T12:49:02.004Z,18.1
2023-03-02T12:50:10.115Z,18.1
2023-03-02T12:51:18.790Z,17.1
2023-03-02T12:52:27.164Z,17.1
2023-03-02T12:53:35.305Z,17.1
2023-03-02T12:54:43.829Z,17.9
2023-03-02T12:55:52.166Z,17.9
2023-03-02T12:57:00.479Z,17.9
2023-03-02T12:58:09.092Z,17.700001
2023-03-02T12:59:17.337Z,17.700001
2023-03-02T13:00:25.670Z,17.700001
2023-03-02T13:01:34.211Z,17.799999
2023-03-02T13:02:43.480Z,17.799999
2023-03-02T13:03:51.761Z,17.799999
2023-03-02T13:05:00.298Z,18.5
2023-03-02T13:06:08.816Z,18.5
2023-03-02T13:07:17.171Z,18.5
2023-03-02T13:08:25.724Z,18.4
2023-03-02T13:09:34.394Z,18.4
2023-03-02T13:10:42.328Z,18.4
2023-03-02T13:11:50.825Z,18.5
2023-03-02T13:12:59.244Z,18.5
2023-03-02T13:14:07.462Z,18.5
2023-03-02T13:15:15.983Z,17.799999
2023-03-02T13:16:24.333Z,17.799999
2023-03-02T13:17:32.654Z,17.799999
2023-03-02T13:18:41.144Z,17.9
2023-03-02T13:19:49.440Z,17.9
2023-03-02T13:20:57.769Z,17.9
2023-03-02T13:22:06.394Z,17.700001
2023-03-02T13:23:14.632Z,17.700001
2023-03-02T13:24:22.947Z,17.700001
2023-03-02T13:25:31.516Z,18.9
2023-03-02T13:26:39.802Z,18.9
2023-03-02T13:27:48.146Z,18.9
2023-03-02T13:28:56.657Z,18.200001
2023-03-02T13:30:06.671Z,18.200001
2023-03-02T13:31:13.425Z,18.200001
2023-03-02T13:32:21.923Z,17.1
2023-03-02T13:33:30.161Z,17.1
2023-03-02T13:34:38.471Z,17.1
2023-03-02T13:35:46.984Z,17.4
2023-03-02T13:36:55.315Z,17.4
2023-03-02T13:38:03.963Z,17.4
2023-03-02T13:39:12.435Z,16.700001
2023-03-02T13:40:21.244Z,16.700001
2023-03-02T13:41:29.496Z,16.700001
2023-03-02T13:42:38.028Z,15.6
2023-03-02T13:43:46.342Z,15.6
2023-03-02T13:44:54.677Z,15.6
2023-03-02T13:46:03.236Z,15.8
2023-03-02T13:47:11.523Z,15.8
2023-03-02T13:48:19.853Z,15.8
2023-03-02T13:49:28.418Z,15.9
2023-03-02T13:50:36.743Z,15.9
2023-03-02T13:51:45.081Z,15.9
2023-03-02T13:52:53.794Z,15.2
2023-03-02T13:54:02.729Z,15.2
2023-03-02T13:55:11.451Z,15.2
2023-03-02T13:56:19.977Z,17.4
2023-03-02T13:57:30.368Z,17.4
2023-03-02T13:58:36.640Z,17.4
2023-03-02T13:59:45.193Z,16.9
2023-03-02T14:00:53.503Z,16.9
2023-03-02T14:02:01.824Z,16.9
2023-03-02T14:03:10.346Z,15.9
2023-03-02T14:04:18.831Z,15.9
2023-03-02T14:05:27.196Z,15.9
2023-03-02T14:06:35.752Z,15.5
2023-03-02T14:07:44.019Z,15.5
2023-03-02T14:08:52.386Z,15.5
2023-03-02T14:10:00.993Z,14
2023-03-02T14:11:09.381Z,14
2023-03-02T14:12:17.771Z,14
2023-03-02T14:13:26.354Z,13.7
2023-03-02T14:14:34.727Z,13.7
2023-03-02T14:15:43.156Z,13.7
2023-03-02T14:16:51.638Z,14.4
2023-03-02T14:17:59.997Z,14.4
2023-03-02T14:19:08.387Z,14.4
2023-03-02T14:20:16.913Z,14.7